Time;durP1;ratioP1;P1;durP2;ratioP2;P2;SDS_P1;SDS_P2;PMS_P1;PMS_P2;Temp;Humidity;BMP_temperature;BMP_pressure;BME280_temperature;BME280_humidity;BME280_pressure;Samples;Min_cycle;Max_cycle;Signal;HPM_P1;HPM_P2
2022/03/21 00:06:49;;;;;;;0.20;0.00;;;13.10;99.90;;;;;;20907931;28;20229;-78
2022/03/21 00:16:52;;;;;;;0.20;0.00;;;13.10;99.90;;;;;;20913379;28;20229;-77
2022/03/21 00:26:58;;;;;;;0.20;0.10;;;13.10;99.90;;;;;;20969904;28;20228;-67
2022/03/21 00:37:02;;;;;;;0.20;0.10;;;13.00;99.90;;;;;;20958971;28;20289;-66
2022/03/21 00:47:07;;;;;;;0.20;0.00;;;13.00;99.90;;;;;;20955566;28;20204;-66
2022/03/21 00:57:11;;;;;;;0.20;0.10;;;12.90;99.90;;;;;;20971065;28;20240;-66
2022/03/21 01:07:16;;;;;;;0.20;0.10;;;12.90;99.90;;;;;;20969283;28;20233;-66
2022/03/21 01:17:20;;;;;;;0.20;0.00;;;12.90;99.90;;;;;;20971099;28;20244;-66
2022/03/21 01:27:25;;;;;;;0.20;0.00;;;11.90;99.90;;;;;;20968607;28;20218;-66
2022/03/21 01:37:29;;;;;;;0.20;0.10;;;11.90;99.90;;;;;;20935134;28;20409;-65
2022/03/21 01:47:34;;;;;;;0.20;0.10;;;12.00;99.90;;;;;;20923624;28;20732;-66
2022/03/21 01:57:38;;;;;;;0.20;0.10;;;12.10;99.90;;;;;;20927388;28;20233;-66
2022/03/21 02:07:44;;;;;;;0.20;0.10;;;12.30;99.90;;;;;;20937169;28;20226;-66
2022/03/21 02:17:49;;;;;;;0.20;0.10;;;12.50;99.90;;;;;;20928925;28;20233;-66
2022/03/21 02:27:58;;;;;;;0.20;0.00;;;12.60;99.90;;;;;;20901698;28;20488;-67
2022/03/21 02:38:02;;;;;;;0.20;0.10;;;12.60;99.90;;;;;;20910324;28;20226;-66
2022/03/21 02:48:07;;;;;;;0.20;0.10;;;12.60;99.90;;;;;;20881704;28;20199;-66
2022/03/21 02:58:11;;;;;;;0.20;0.00;;;12.60;99.90;;;;;;20880977;28;20234;-79
2022/03/21 03:08:16;;;;;;;0.20;0.00;;;12.40;99.90;;;;;;20881655;28;20251;-78
2022/03/21 03:18:20;;;;;;;0.20;0.10;;;12.30;99.90;;;;;;20862490;28;20263;-66
2022/03/21 03:28:25;;;;;;;0.20;0.10;;;12.20;99.90;;;;;;20880326;28;20237;-66
2022/03/21 03:38:48;;;;;;;0.20;0.10;;;12.20;99.90;;;;;;20907827;28;20450;-81
2022/03/21 03:48:54;;;;;;;0.20;0.10;;;12.20;99.90;;;;;;20963248;28;20193;-65
2022/03/21 03:58:58;;;;;;;0.20;0.10;;;12.30;99.90;;;;;;20959062;28;20233;-66
2022/03/21 04:09:03;;;;;;;0.20;0.00;;;12.40;99.90;;;;;;20975642;28;20229;-79
2022/03/21 04:19:07;;;;;;;0.20;0.00;;;12.40;99.90;;;;;;20974595;28;20240;-80
2022/03/21 04:29:13;;;;;;;0.20;0.00;;;12.40;99.90;;;;;;20975497;28;20233;-77
2022/03/21 04:39:17;;;;;;;0.20;0.10;;;12.40;99.90;;;;;;20976587;28;20228;-81
2022/03/21 04:49:22;;;;;;;0.20;0.10;;;12.40;99.90;;;;;;20973021;28;20513;-80
2022/03/21 04:59:25;;;;;;;0.20;0.10;;;12.40;99.90;;;;;;20953006;28;20225;-82
2022/03/21 05:09:31;;;;;;;0.20;0.00;;;12.50;99.90;;;;;;20954354;28;20225;-81
2022/03/21 05:19:35;;;;;;;0.20;0.00;;;12.60;99.90;;;;;;20969408;28;20229;-82
2022/03/21 05:50:25;;;;;;;0.20;0.10;;;12.70;99.90;;;;;;20885580;28;20233;-80
2022/03/21 06:00:29;;;;;;;0.20;0.00;;;12.70;99.90;;;;;;20883962;28;20194;-78
2022/03/21 06:10:36;;;;;;;0.20;0.10;;;12.70;99.90;;;;;;20882845;28;20226;-80
2022/03/21 06:20:40;;;;;;;0.20;0.00;;;12.80;99.90;;;;;;20863371;28;20205;-78
2022/03/21 06:30:45;;;;;;;0.20;0.00;;;12.80;99.90;;;;;;20878462;28;20226;-77
2022/03/21 06:40:49;;;;;;;0.20;0.10;;;12.80;99.90;;;;;;20905003;28;20208;-81
2022/03/21 06:50:55;;;;;;;0.20;0.10;;;12.90;99.90;;;;;;20959720;28;20229;-82
2022/03/21 07:00:59;;;;;;;0.20;0.10;;;13.00;99.90;;;;;;20938341;28;20216;-83
2022/03/21 07:11:05;;;;;;;0.20;0.10;;;13.00;99.90;;;;;;20954503;28;20229;-80
2022/03/21 07:21:08;;;;;;;0.20;0.00;;;13.30;99.90;;;;;;20957579;28;20457;-81
2022/03/21 07:31:14;;;;;;;0.20;0.00;;;13.40;99.90;;;;;;20971849;28;20236;-77
2022/03/21 07:41:17;;;;;;;0.20;0.00;;;13.50;99.90;;;;;;20926416;28;20202;-80
2022/03/21 07:51:23;;;;;;;0.20;0.00;;;13.70;99.90;;;;;;20907460;28;20226;-81
2022/03/21 08:01:29;;;;;;;0.20;0.10;;;13.40;99.90;;;;;;20906041;28;20205;-75
2022/03/21 08:11:34;;;;;;;0.20;0.10;;;13.30;99.90;;;;;;20942801;28;20240;-77
2022/03/21 08:21:38;;;;;;;0.20;0.10;;;13.50;99.90;;;;;;20967983;28;20232;-80
2022/03/21 08:31:43;;;;;;;0.20;0.00;;;14.00;99.90;;;;;;20970745;28;20256;-68
2022/03/21 08:41:47;;;;;;;0.20;0.00;;;14.20;99.90;;;;;;20965203;28;20193;-80
2022/03/21 08:51:53;;;;;;;0.20;0.13;;;14.00;99.90;;;;;;20968202;28;20804;-83
2022/03/21 09:01:56;;;;;;;0.20;0.10;;;14.20;99.90;;;;;;20984533;28;20216;-79
2022/03/21 09:12:02;;;;;;;0.20;0.00;;;14.20;99.90;;;;;;20969274;28;20528;-80
2022/03/21 09:22:06;;;;;;;0.20;0.00;;;14.40;99.90;;;;;;20969449;28;20209;-82
2022/03/21 09:32:11;;;;;;;0.20;0.00;;;14.70;99.90;;;;;;20967450;28;20636;-76
2022/03/21 09:42:15;;;;;;;0.20;0.00;;;14.90;99.90;;;;;;20907609;28;20202;-79
2022/03/21 09:52:21;;;;;;;0.20;0.00;;;14.80;99.90;;;;;;20861953;28;20420;-79
2022/03/21 10:02:26;;;;;;;0.20;0.10;;;15.10;99.90;;;;;;20858941;28;20209;-78
2022/03/21 10:12:32;;;;;;;0.20;0.00;;;15.20;99.90;;;;;;20878045;28;20226;-77
2022/03/21 10:22:43;;;;;;;0.20;0.10;;;14.20;99.90;;;;;;20876003;28;20195;-66
2022/03/21 10:32:54;;;;;;;0.20;0.10;;;14.90;99.90;;;;;;20856283;28;20232;-67
2022/03/21 10:43:00;;;;;;;0.20;0.00;;;15.30;99.90;;;;;;20936219;28;20272;-67
2022/03/21 10:53:08;;;;;;;0.20;0.10;;;15.60;99.90;;;;;;20956620;28;20248;-66
2022/03/21 11:03:15;;;;;;;0.20;0.10;;;16.40;99.90;;;;;;20958380;28;20194;-68
2022/03/21 11:13:25;;;;;;;0.20;0.10;;;16.70;99.90;;;;;;20957755;28;20382;-67
2022/03/21 11:34:58;;;;;;;0.20;0.00;;;17.60;99.90;;;;;;20873508;28;20229;-65
2022/03/21 11:45:23;;;;;;;0.20;0.10;;;17.50;99.90;;;;;;20872328;28;20198;-64
2022/03/21 11:55:37;;;;;;;0.20;0.00;;;17.80;99.90;;;;;;20873927;28;20233;-65
2022/03/21 12:06:23;;;;;;;0.20;0.00;;;18.70;99.90;;;;;;20876822;28;20207;-65
2022/03/21 12:16:29;;;;;;;0.20;0.10;;;19.50;99.90;;;;;;20900789;23;20226;-76
2022/03/21 12:26:36;;;;;;;0.20;0.10;;;20.30;99.90;;;;;;20886035;28;20213;-79
2022/03/21 12:36:41;;;;;;;0.20;0.10;;;19.60;99.90;;;;;;20890655;28;20237;-79
2022/03/21 12:46:46;;;;;;;0.20;0.00;;;20.70;99.90;;;;;;20888246;28;20198;-67
2022/03/21 12:56:51;;;;;;;0.20;0.10;;;20.80;99.90;;;;;;20882977;28;20241;-67
2022/03/21 13:17:24;;;;;;;0.20;0.10;;;19.90;99.90;;;;;;20879396;28;20234;-66
2022/03/21 13:27:36;;;;;;;0.20;0.00;;;20.60;99.90;;;;;;20877383;28;20324;-70
2022/03/21 13:37:41;;;;;;;0.20;0.10;;;21.80;99.90;;;;;;20869947;28;20236;-67
2022/03/21 13:47:49;;;;;;;0.20;0.00;;;21.40;99.90;;;;;;20876634;28;20205;-73
2022/03/21 13:57:57;;;;;;;0.20;0.00;;;23.00;99.90;;;;;;20879408;28;20233;-72
2022/03/21 14:08:12;;;;;;;0.20;0.10;;;22.50;99.90;;;;;;20878456;28;20201;-72
2022/03/21 14:18:22;;;;;;;0.20;0.07;;;22.50;99.90;;;;;;20876264;28;20236;-69
2022/03/21 14:28:26;;;;;;;0.20;0.10;;;21.70;99.90;;;;;;20875812;28;20209;-71
2022/03/21 14:38:34;;;;;;;0.73;0.73;;;19.50;99.90;;;;;;20875066;28;20268;-81
2022/03/21 14:48:43;;;;;;;0.20;0.00;;;19.90;99.90;;;;;;20875531;28;20209;-82
2022/03/21 14:58:49;;;;;;;0.20;0.00;;;20.20;99.90;;;;;;20843104;28;20241;-81
2022/03/21 15:08:53;;;;;;;0.20;0.00;;;21.00;99.90;;;;;;20873685;28;20202;-79
2022/03/21 15:18:59;;;;;;;0.20;0.00;;;18.00;99.90;;;;;;20880399;28;20229;-75
2022/03/21 15:29:03;;;;;;;0.20;0.10;;;18.40;99.90;;;;;;20880365;28;20212;-77
2022/03/21 15:49:30;;;;;;;0.30;0.30;;;19.70;99.90;;;;;;20888047;28;20278;-80
2022/03/21 15:59:35;;;;;;;0.20;0.10;;;18.40;99.90;;;;;;20896155;28;20240;-77
2022/03/21 16:09:39;;;;;;;0.20;0.10;;;18.60;99.90;;;;;;20884324;28;20250;-77
2022/03/21 16:19:45;;;;;;;0.20;0.10;;;17.20;99.90;;;;;;20873966;28;20226;-77
2022/03/21 16:29:48;;;;;;;0.47;0.47;;;17.00;99.90;;;;;;20874397;28;20194;-79
2022/03/21 16:39:53;;;;;;;0.20;0.10;;;16.70;99.90;;;;;;20873114;28;20240;-77
2022/03/21 16:49:57;;;;;;;0.20;0.10;;;16.30;99.90;;;;;;20872513;28;20202;-71
2022/03/21 17:00:06;;;;;;;0.20;0.10;;;15.50;99.90;;;;;;20870604;28;20237;-78
2022/03/21 17:10:14;;;;;;;0.87;0.87;;;15.30;99.90;;;;;;20868869;28;20228;-69
2022/03/21 17:30:41;;;;;;;0.20;0.00;;;14.60;99.90;;;;;;20870366;28;20217;-77
2022/03/21 17:40:47;;;;;;;0.20;0.17;;;14.40;99.90;;;;;;20858097;28;20230;-75
2022/03/21 17:50:51;;;;;;;0.20;0.20;;;13.80;99.90;;;;;;20874142;28;20202;-76
2022/03/21 18:00:56;;;;;;;0.20;0.10;;;13.60;99.90;;;;;;20878354;28;20230;-78
2022/03/21 18:11:02;;;;;;;0.20;0.10;;;13.40;99.90;;;;;;20859875;28;20241;-70
2022/03/21 18:21:08;;;;;;;0.20;0.10;;;13.30;99.90;;;;;;20877083;28;20236;-70
2022/03/21 18:31:17;;;;;;;0.20;0.10;;;13.30;99.90;;;;;;20873984;28;20279;-71
2022/03/21 18:41:23;;;;;;;0.20;0.10;;;13.40;99.90;;;;;;20810736;28;20445;-69
2022/03/21 18:51:27;;;;;;;0.20;0.10;;;13.20;99.90;;;;;;20793863;28;20422;-70
2022/03/21 19:01:32;;;;;;;0.20;0.10;;;13.10;99.90;;;;;;20788721;28;20238;-70
2022/03/21 19:11:36;;;;;;;0.20;0.10;;;13.10;99.90;;;;;;20791648;28;20199;-68
2022/03/21 19:21:42;;;;;;;0.20;0.00;;;12.90;99.90;;;;;;20796988;28;20232;-70
2022/03/21 19:31:46;;;;;;;0.20;0.10;;;12.80;99.90;;;;;;20814289;28;20222;-70
2022/03/21 19:41:51;;;;;;;0.20;0.10;;;12.80;99.90;;;;;;20889303;28;20234;-69
2022/03/21 19:51:55;;;;;;;0.20;0.10;;;12.60;99.90;;;;;;20889100;28;20198;-69
2022/03/21 20:02:00;;;;;;;0.20;0.10;;;12.80;99.90;;;;;;20886779;28;20346;-69
2022/03/21 20:12:05;;;;;;;0.20;0.10;;;12.60;99.90;;;;;;20887765;28;20233;-70
2022/03/21 20:22:11;;;;;;;0.20;0.10;;;12.40;99.90;;;;;;20889811;28;20316;-72
2022/03/21 20:32:15;;;;;;;0.20;0.10;;;12.30;99.90;;;;;;20887964;28;20213;-65
2022/03/21 20:42:20;;;;;;;0.20;0.10;;;12.20;99.90;;;;;;20833896;28;20401;-65
2022/03/21 20:52:27;;;;;;;0.20;0.10;;;12.20;99.90;;;;;;20804977;28;20195;-65
2022/03/21 21:02:32;;;;;;;0.20;0.10;;;12.10;99.90;;;;;;20807555;28;20707;-65
2022/03/21 21:12:37;;;;;;;0.20;0.10;;;12.00;99.90;;;;;;20805812;28;20215;-65
2022/03/21 21:22:42;;;;;;;0.20;0.10;;;12.00;99.90;;;;;;20804393;28;20218;-73
2022/03/21 21:32:46;;;;;;;0.20;0.20;;;12.00;99.90;;;;;;20816910;28;20210;-73
2022/03/21 21:42:51;;;;;;;0.20;0.10;;;11.90;99.90;;;;;;20823411;28;20233;-73
2022/03/21 21:52:57;;;;;;;0.20;0.10;;;11.80;99.90;;;;;;20801746;28;20218;-71
2022/03/21 22:03:02;;;;;;;0.20;0.10;;;11.80;99.90;;;;;;20801844;28;20214;-72
2022/03/21 22:13:06;;;;;;;0.20;0.10;;;11.70;99.90;;;;;;20802228;28;20231;-72
2022/03/21 22:23:11;;;;;;;0.20;0.10;;;11.60;99.90;;;;;;20799513;28;20195;-73
2022/03/21 22:33:15;;;;;;;0.20;0.10;;;11.70;99.90;;;;;;20816462;28;20214;-73
2022/03/21 22:53:42;;;;;;;0.20;0.10;;;11.60;99.90;;;;;;20800747;28;20610;-79
2022/03/21 23:03:47;;;;;;;1.83;1.73;;;11.60;99.90;;;;;;20805947;28;20223;-80
2022/03/21 23:13:54;;;;;;;0.20;0.10;;;11.60;99.90;;;;;;20815701;28;20226;-80
2022/03/21 23:23:59;;;;;;;0.20;0.10;;;11.60;99.90;;;;;;20889376;28;20199;-81
2022/03/21 23:34:03;;;;;;;0.20;0.10;;;11.60;99.90;;;;;;20891102;28;20245;-80
2022/03/21 23:44:08;;;;;;;0.20;0.10;;;11.50;99.90;;;;;;20892945;28;20186;-82
2022/03/21 23:54:13;;;;;;;0.20;0.10;;;11.60;99.90;;;;;;20881299;28;20237;-67
